Time;durP1;ratioP1;P1;durP2;ratioP2;P2;SDS_P1;SDS_P2;PMS_P1;PMS_P2;Temp;Humidity;BMP_temperature;BMP_pressure;BME280_temperature;BME280_humidity;BME280_pressure;Samples;Min_cycle;Max_cycle;Signal;HPM_P1;HPM_P2
2022/10/07 00:00:14;;;;;;;;;13.25;9.75;;;;;;;;5040967;28;61759;-75
2022/10/07 00:02:40;;;;;;;;;15.25;9.75;;;;;;;;5040900;28;61894;-75
2022/10/07 00:05:05;;;;;;;;;15.00;10.75;;;;;;;;5041028;28;62197;-75
2022/10/07 00:07:30;;;;;;;;;11.75;10.25;;;;;;;;5025266;28;63473;-75
2022/10/07 00:10:01;;;;;;;;;16.50;11.50;;;;;;;;5044675;28;61760;-75
2022/10/07 00:12:27;;;;;;;;;11.75;10.25;;;;;;;;5026222;28;61981;-75
2022/10/07 00:14:53;;;;;;;;;13.50;13.50;;;;;;;;5026148;28;61918;-75
2022/10/07 00:17:18;;;;;;;;;13.50;9.00;;;;;;;;5043481;28;61850;-75
2022/10/07 00:19:45;;;;;;;;;13.00;9.25;;;;;;;;5044195;28;61910;-75
2022/10/07 00:22:10;;;;;;;;;9.50;8.75;;;;;;;;5044687;28;61759;-76
2022/10/07 00:24:36;;;;;;;;;14.25;11.50;;;;;;;;5026615;28;61766;-75
2022/10/07 00:27:01;;;;;;;;;13.50;10.00;;;;;;;;5043665;28;61977;-75
2022/10/07 00:29:27;;;;;;;;;17.75;12.00;;;;;;;;5026156;28;62153;-75
2022/10/07 00:31:53;;;;;;;;;13.25;11.75;;;;;;;;5044327;28;61766;-75
2022/10/07 00:34:18;;;;;;;;;12.25;6.75;;;;;;;;5044316;28;62096;-75
2022/10/07 00:36:43;;;;;;;;;13.75;11.50;;;;;;;;5048705;28;61872;-76
2022/10/07 00:39:13;;;;;;;;;17.00;12.75;;;;;;;;5044180;28;61746;-76
2022/10/07 00:41:38;;;;;;;;;16.25;10.00;;;;;;;;5044105;28;61933;-75
2022/10/07 00:44:22;;;;;;;;;16.00;11.25;;;;;;;;5044424;28;61698;-76
2022/10/07 00:46:47;;;;;;;;;13.75;10.75;;;;;;;;5043433;28;62898;-75
2022/10/07 00:49:13;;;;;;;;;15.75;11.25;;;;;;;;5043518;28;61687;-75
2022/10/07 00:51:39;;;;;;;;;14.00;11.00;;;;;;;;5043631;28;62033;-75
2022/10/07 00:54:11;;;;;;;;;13.00;8.25;;;;;;;;5026210;28;61790;-75
2022/10/07 00:56:37;;;;;;;;;12.00;8.50;;;;;;;;5043111;28;61687;-76
2022/10/07 00:59:02;;;;;;;;;11.00;7.25;;;;;;;;5043647;28;61966;-75
2022/10/07 01:01:28;;;;;;;;;11.00;7.25;;;;;;;;5043164;28;61883;-76
2022/10/07 01:03:58;;;;;;;;;11.00;11.00;;;;;;;;5044065;28;61788;-75
2022/10/07 01:06:24;;;;;;;;;8.25;8.25;;;;;;;;5042912;28;61900;-75
2022/10/07 01:08:51;;;;;;;;;12.50;8.00;;;;;;;;5043766;28;61895;-75
2022/10/07 01:11:19;;;;;;;;;11.75;9.00;;;;;;;;5043703;28;61870;-76
2022/10/07 01:13:48;;;;;;;;;9.00;7.75;;;;;;;;5025696;28;61812;-76
2022/10/07 01:16:25;;;;;;;;;13.25;12.75;;;;;;;;5042853;28;62725;-75
2022/10/07 01:19:13;;;;;;;;;13.25;10.25;;;;;;;;5043042;28;61719;-75
2022/10/07 01:21:38;;;;;;;;;10.00;9.00;;;;;;;;4961944;28;61778;-75
2022/10/07 01:24:10;;;;;;;;;12.75;8.25;;;;;;;;4945857;28;62245;-76
2022/10/07 01:27:05;;;;;;;;;13.25;7.75;;;;;;;;4944882;28;63712;-75
2022/10/07 01:29:35;;;;;;;;;9.00;7.00;;;;;;;;4949374;28;62464;-75
2022/10/07 01:32:16;;;;;;;;;17.25;8.75;;;;;;;;4961524;28;62005;-75
2022/10/07 01:34:42;;;;;;;;;12.50;9.50;;;;;;;;4962515;28;61932;-75
2022/10/07 01:37:10;;;;;;;;;12.00;9.50;;;;;;;;4965987;28;61851;-75
2022/10/07 01:39:38;;;;;;;;;14.50;12.50;;;;;;;;4961355;28;62319;-75
2022/10/07 01:42:04;;;;;;;;;10.25;9.00;;;;;;;;4962329;28;61948;-76
2022/10/07 01:44:29;;;;;;;;;20.75;12.75;;;;;;;;4962180;28;61860;-75
2022/10/07 01:46:54;;;;;;;;;9.75;9.75;;;;;;;;4960682;28;62647;-75
2022/10/07 01:49:20;;;;;;;;;13.50;11.00;;;;;;;;4961364;28;61878;-75
2022/10/07 01:51:50;;;;;;;;;17.50;13.00;;;;;;;;4961278;28;62068;-76
2022/10/07 01:54:34;;;;;;;;;13.75;9.00;;;;;;;;4962187;28;61991;-75
2022/10/07 01:57:08;;;;;;;;;12.75;9.25;;;;;;;;4960674;28;61929;-75
2022/10/07 02:00:00;;;;;;;;;14.00;9.75;;;;;;;;5032225;28;61628;-76
2022/10/07 02:02:28;;;;;;;;;10.50;10.50;;;;;;;;5038617;28;62224;-75
2022/10/07 02:05:02;;;;;;;;;15.50;14.75;;;;;;;;5025190;28;61930;-75
2022/10/07 02:07:44;;;;;;;;;12.00;8.50;;;;;;;;5041898;28;63004;-75
2022/10/07 02:10:23;;;;;;;;;12.75;12.25;;;;;;;;5024962;28;61953;-76
2022/10/07 02:12:56;;;;;;;;;13.75;9.75;;;;;;;;5042504;28;61896;-75
2022/10/07 02:15:23;;;;;;;;;10.25;10.25;;;;;;;;5042669;28;61876;-75
2022/10/07 02:17:52;;;;;;;;;11.00;9.50;;;;;;;;5041239;28;62772;-75
2022/10/07 02:20:19;;;;;;;;;9.25;9.25;;;;;;;;5024270;28;61728;-75
2022/10/07 02:22:45;;;;;;;;;11.00;9.75;;;;;;;;5042816;28;61842;-76
2022/10/07 02:25:12;;;;;;;;;11.25;10.00;;;;;;;;5042796;28;61727;-75
2022/10/07 02:27:39;;;;;;;;;11.00;11.00;;;;;;;;5041660;28;61781;-75
2022/10/07 02:30:12;;;;;;;;;15.00;10.50;;;;;;;;5041529;28;61902;-75
2022/10/07 02:32:40;;;;;;;;;11.00;10.25;;;;;;;;5024466;28;61816;-76
2022/10/07 02:35:12;;;;;;;;;11.25;10.00;;;;;;;;5042437;28;61803;-75
2022/10/07 02:37:39;;;;;;;;;12.75;10.75;;;;;;;;5047049;28;62709;-75
2022/10/07 02:40:05;;;;;;;;;16.50;9.75;;;;;;;;5042589;28;61817;-75
2022/10/07 02:42:53;;;;;;;;;16.50;9.00;;;;;;;;5042560;28;61676;-76
2022/10/07 02:45:24;;;;;;;;;11.50;8.50;;;;;;;;5031049;28;61836;-76
2022/10/07 02:47:53;;;;;;;;;12.50;8.00;;;;;;;;5041285;28;62893;-75
2022/10/07 02:50:21;;;;;;;;;13.00;9.25;;;;;;;;5041650;28;61957;-76
2022/10/07 02:52:48;;;;;;;;;10.25;6.00;;;;;;;;5042366;28;62068;-76
2022/10/07 02:55:16;;;;;;;;;8.00;6.25;;;;;;;;5042460;28;61842;-75
2022/10/07 02:57:44;;;;;;;;;9.25;8.25;;;;;;;;5041410;28;61940;-76
2022/10/07 03:00:09;;;;;;;;;10.50;7.25;;;;;;;;5041738;28;61865;-75
2022/10/07 03:02:38;;;;;;;;;10.00;8.00;;;;;;;;5041448;28;61683;-76
2022/10/07 03:05:05;;;;;;;;;10.00;5.75;;;;;;;;5042235;28;61693;-75
2022/10/07 03:07:31;;;;;;;;;7.75;6.00;;;;;;;;5041134;28;61752;-75
2022/10/07 03:09:57;;;;;;;;;9.00;7.25;;;;;;;;5041925;28;61877;-75
2022/10/07 03:12:22;;;;;;;;;11.25;7.25;;;;;;;;5041891;28;61890;-75
2022/10/07 03:14:48;;;;;;;;;5.50;5.00;;;;;;;;5042277;28;61713;-75
2022/10/07 03:17:14;;;;;;;;;7.25;5.00;;;;;;;;5042827;28;61825;-76
2022/10/07 03:19:40;;;;;;;;;11.50;7.50;;;;;;;;5041505;28;61739;-75
2022/10/07 03:22:05;;;;;;;;;9.00;8.00;;;;;;;;5041783;28;61898;-75
2022/10/07 03:24:30;;;;;;;;;8.50;5.75;;;;;;;;5042006;28;62012;-75
2022/10/07 03:26:55;;;;;;;;;10.50;7.25;;;;;;;;5040587;28;61761;-75
2022/10/07 03:29:21;;;;;;;;;11.25;9.00;;;;;;;;5041896;28;61873;-75
2022/10/07 03:31:46;;;;;;;;;11.50;9.00;;;;;;;;5041424;28;61998;-75
2022/10/07 03:34:11;;;;;;;;;12.50;11.50;;;;;;;;5041721;28;61783;-75
2022/10/07 03:36:38;;;;;;;;;15.75;9.50;;;;;;;;5040847;28;61735;-75
2022/10/07 03:39:03;;;;;;;;;8.25;7.75;;;;;;;;5041463;28;61998;-75
2022/10/07 03:41:28;;;;;;;;;9.00;7.00;;;;;;;;5044528;28;61705;-76
2022/10/07 03:43:56;;;;;;;;;9.00;7.75;;;;;;;;5045312;28;62071;-75
2022/10/07 03:46:21;;;;;;;;;9.50;7.00;;;;;;;;5025881;28;63881;-75
2022/10/07 03:48:46;;;;;;;;;9.50;7.75;;;;;;;;5044757;28;61718;-75
2022/10/07 03:51:12;;;;;;;;;11.75;7.25;;;;;;;;5044844;28;61877;-75
2022/10/07 03:53:37;;;;;;;;;10.50;7.25;;;;;;;;5027369;28;61739;-76
2022/10/07 03:56:03;;;;;;;;;9.75;8.75;;;;;;;;5026244;28;63529;-75
2022/10/07 03:58:28;;;;;;;;;8.00;7.00;;;;;;;;5026962;28;61831;-75
2022/10/07 04:01:06;;;;;;;;;6.75;4.00;;;;;;;;5044999;28;61715;-75
2022/10/07 04:03:32;;;;;;;;;9.00;6.50;;;;;;;;5045164;28;61783;-76
2022/10/07 04:05:58;;;;;;;;;12.00;7.75;;;;;;;;5043864;28;61897;-75
2022/10/07 04:08:26;;;;;;;;;9.00;5.00;;;;;;;;5026628;28;61774;-76
2022/10/07 04:10:52;;;;;;;;;11.25;7.25;;;;;;;;5044973;28;61812;-75
2022/10/07 04:13:17;;;;;;;;;7.00;6.00;;;;;;;;5045023;28;61723;-75
2022/10/07 04:15:42;;;;;;;;;13.00;7.00;;;;;;;;5044149;28;61931;-75
2022/10/07 04:18:09;;;;;;;;;5.50;4.00;;;;;;;;5026229;28;61945;-75
2022/10/07 04:20:36;;;;;;;;;5.50;3.75;;;;;;;;5044756;28;61864;-75
2022/10/07 04:23:01;;;;;;;;;8.75;7.00;;;;;;;;5044742;28;61818;-75
2022/10/07 04:25:32;;;;;;;;;7.50;5.25;;;;;;;;5025759;28;63792;-75
2022/10/07 04:27:58;;;;;;;;;7.75;5.00;;;;;;;;5062571;28;62016;-75
2022/10/07 04:30:25;;;;;;;;;8.00;6.75;;;;;;;;5064799;28;62090;-75
2022/10/07 04:32:50;;;;;;;;;6.50;3.00;;;;;;;;5036323;28;61902;-75
2022/10/07 04:35:19;;;;;;;;;3.25;3.25;;;;;;;;5052755;28;61951;-76
2022/10/07 04:37:48;;;;;;;;;5.50;4.25;;;;;;;;5053129;28;61902;-75
2022/10/07 04:40:14;;;;;;;;;6.00;6.00;;;;;;;;5050036;28;61822;-75
2022/10/07 04:45:23;;;;;;;;;8.67;6.00;;;;;;;;5053682;28;61814;-75
2022/10/07 04:47:48;;;;;;;;;8.00;7.00;;;;;;;;5052363;28;61963;-75
2022/10/07 04:50:14;;;;;;;;;11.75;6.50;;;;;;;;5053566;28;61753;-75
2022/10/07 04:52:39;;;;;;;;;7.00;7.00;;;;;;;;5055633;28;61758;-75
2022/10/07 04:55:05;;;;;;;;;11.25;5.75;;;;;;;;5063178;28;61939;-76
2022/10/07 04:57:31;;;;;;;;;8.00;7.00;;;;;;;;5063879;28;61702;-76
2022/10/07 04:59:56;;;;;;;;;8.75;7.50;;;;;;;;5064142;28;62058;-75
2022/10/07 05:02:21;;;;;;;;;10.25;8.00;;;;;;;;5045504;28;61868;-75
2022/10/07 05:04:46;;;;;;;;;10.75;8.75;;;;;;;;5060273;28;62634;-77
2022/10/07 05:07:13;;;;;;;;;8.50;6.75;;;;;;;;5057085;28;61727;-76
2022/10/07 05:09:45;;;;;;;;;10.75;7.75;;;;;;;;5043194;28;61729;-76
2022/10/07 05:12:16;;;;;;;;;8.50;5.25;;;;;;;;5027548;28;61716;-76
2022/10/07 05:14:42;;;;;;;;;6.00;5.00;;;;;;;;5026125;28;63415;-76
2022/10/07 05:17:07;;;;;;;;;5.75;5.00;;;;;;;;5044584;28;61753;-75
2022/10/07 05:19:32;;;;;;;;;11.25;8.00;;;;;;;;5049089;28;62084;-75
2022/10/07 05:21:58;;;;;;;;;10.75;8.25;;;;;;;;5052532;28;62039;-75
2022/10/07 05:24:23;;;;;;;;;8.75;6.25;;;;;;;;5042243;28;61992;-75
2022/10/07 05:26:49;;;;;;;;;10.75;7.00;;;;;;;;5043509;28;61972;-76
2022/10/07 05:29:14;;;;;;;;;11.00;6.25;;;;;;;;5025402;28;61766;-75
2022/10/07 05:31:40;;;;;;;;;10.25;7.50;;;;;;;;5043124;28;61869;-76
2022/10/07 05:34:06;;;;;;;;;12.00;6.50;;;;;;;;5042945;28;62056;-75
2022/10/07 05:36:32;;;;;;;;;11.00;8.50;;;;;;;;5030113;28;62709;-76
2022/10/07 05:38:58;;;;;;;;;12.50;9.75;;;;;;;;5025228;28;61940;-79
2022/10/07 05:41:23;;;;;;;;;8.25;4.75;;;;;;;;5025186;28;62124;-79
2022/10/07 05:43:49;;;;;;;;;8.25;8.25;;;;;;;;5042270;28;62007;-78
2022/10/07 05:46:15;;;;;;;;;8.25;8.25;;;;;;;;5042132;28;62013;-79
2022/10/07 05:48:44;;;;;;;;;11.50;8.25;;;;;;;;5041844;28;62205;-82
2022/10/07 05:51:11;;;;;;;;;18.00;13.75;;;;;;;;5039864;28;61790;-79
2022/10/07 05:53:40;;;;;;;;;14.50;13.00;;;;;;;;5040977;28;61771;-80
2022/10/07 05:56:05;;;;;;;;;6.00;6.00;;;;;;;;5042060;28;61968;-80
2022/10/07 05:58:33;;;;;;;;;8.75;7.75;;;;;;;;5041906;28;61909;-79
2022/10/07 06:00:59;;;;;;;;;11.75;10.00;;;;;;;;5042341;28;62024;-78
2022/10/07 06:03:24;;;;;;;;;13.00;9.50;;;;;;;;5040733;28;61931;-78
2022/10/07 06:05:50;;;;;;;;;9.75;8.00;;;;;;;;5023872;28;61910;-78
2022/10/07 06:08:17;;;;;;;;;11.00;9.00;;;;;;;;5023811;28;62021;-77
2022/10/07 06:13:26;;;;;;;;;9.25;7.00;;;;;;;;5040157;28;61683;-76
2022/10/07 06:15:52;;;;;;;;;10.25;10.25;;;;;;;;5042533;28;61909;-76
2022/10/07 06:18:17;;;;;;;;;14.50;9.50;;;;;;;;5042560;28;62100;-75
2022/10/07 06:20:51;;;;;;;;;10.50;8.50;;;;;;;;5041003;28;61802;-75
2022/10/07 06:23:16;;;;;;;;;11.25;10.25;;;;;;;;5025096;28;61892;-76
2022/10/07 06:25:42;;;;;;;;;12.75;9.50;;;;;;;;5024396;28;61804;-76
2022/10/07 06:28:07;;;;;;;;;9.00;6.25;;;;;;;;5042716;28;62075;-76
2022/10/07 06:30:33;;;;;;;;;15.00;9.00;;;;;;;;5042824;28;61914;-76
2022/10/07 06:32:59;;;;;;;;;7.00;7.00;;;;;;;;5041245;28;63306;-75
2022/10/07 06:35:24;;;;;;;;;15.00;10.25;;;;;;;;5042696;28;62200;-75
2022/10/07 06:37:49;;;;;;;;;11.25;8.75;;;;;;;;5041830;28;61822;-76
2022/10/07 06:40:14;;;;;;;;;10.00;8.00;;;;;;;;5042525;28;61763;-76
2022/10/07 06:42:40;;;;;;;;;11.50;8.50;;;;;;;;5041171;28;61836;-76
2022/10/07 06:45:05;;;;;;;;;10.00;10.00;;;;;;;;5024365;28;62042;-76
2022/10/07 06:47:30;;;;;;;;;12.25;10.25;;;;;;;;5041923;28;61868;-76
2022/10/07 06:49:56;;;;;;;;;12.25;10.50;;;;;;;;5041794;28;62356;-75
2022/10/07 06:52:21;;;;;;;;;10.75;10.50;;;;;;;;5041206;28;61790;-76
2022/10/07 06:54:46;;;;;;;;;11.50;9.50;;;;;;;;5041442;28;61861;-76
2022/10/07 06:57:11;;;;;;;;;11.50;10.50;;;;;;;;5041686;28;61914;-76
2022/10/07 06:59:37;;;;;;;;;23.00;12.25;;;;;;;;5041940;28;62128;-76
2022/10/07 07:02:02;;;;;;;;;20.00;13.50;;;;;;;;5023059;28;63739;-75
2022/10/07 07:04:27;;;;;;;;;13.25;11.00;;;;;;;;5041675;28;61711;-75
2022/10/07 07:06:53;;;;;;;;;14.50;10.75;;;;;;;;5041759;28;61963;-76
2022/10/07 07:09:20;;;;;;;;;12.50;12.00;;;;;;;;5042076;28;61782;-76
2022/10/07 07:11:45;;;;;;;;;13.75;12.00;;;;;;;;5041192;28;62596;-76
2022/10/07 07:14:11;;;;;;;;;18.25;13.50;;;;;;;;5041809;28;61823;-76
2022/10/07 07:16:36;;;;;;;;;16.75;12.00;;;;;;;;5041251;28;61790;-76
2022/10/07 07:19:07;;;;;;;;;13.75;11.25;;;;;;;;5041243;28;61910;-75
2022/10/07 07:21:33;;;;;;;;;18.00;14.75;;;;;;;;5041142;28;62665;-76
2022/10/07 07:23:59;;;;;;;;;20.50;11.75;;;;;;;;5041531;28;61756;-76
2022/10/07 07:26:24;;;;;;;;;22.75;18.75;;;;;;;;5023805;28;62029;-76
2022/10/07 07:28:50;;;;;;;;;20.50;16.75;;;;;;;;5041414;28;61810;-76
2022/10/07 07:31:15;;;;;;;;;16.75;15.50;;;;;;;;5040831;28;62196;-76
2022/10/07 07:33:40;;;;;;;;;18.00;15.75;;;;;;;;5041263;28;61921;-76
2022/10/07 07:36:15;;;;;;;;;21.25;14.25;;;;;;;;5041486;28;61742;-76
2022/10/07 07:38:50;;;;;;;;;23.75;19.25;;;;;;;;5041756;28;61933;-76
2022/10/07 07:41:15;;;;;;;;;22.50;14.25;;;;;;;;5022922;28;63637;-76
2022/10/07 07:43:41;;;;;;;;;19.25;14.25;;;;;;;;5023442;28;61972;-76
2022/10/07 07:46:06;;;;;;;;;26.00;15.00;;;;;;;;5041054;28;62058;-76
2022/10/07 07:48:31;;;;;;;;;22.50;16.00;;;;;;;;5040956;28;61885;-75
2022/10/07 07:50:56;;;;;;;;;24.75;18.25;;;;;;;;5040432;28;61990;-76
2022/10/07 07:53:22;;;;;;;;;21.75;18.00;;;;;;;;5041220;28;61862;-76
2022/10/07 07:55:56;;;;;;;;;17.00;15.00;;;;;;;;5041493;28;61962;-76
2022/10/07 07:58:23;;;;;;;;;20.50;15.75;;;;;;;;5041361;28;61843;-76
2022/10/07 08:00:58;;;;;;;;;22.00;17.25;;;;;;;;5040759;28;61928;-76
2022/10/07 08:03:24;;;;;;;;;22.00;17.25;;;;;;;;5022566;28;62108;-76
2022/10/07 08:05:50;;;;;;;;;20.25;17.50;;;;;;;;5040895;28;61814;-76
2022/10/07 08:08:15;;;;;;;;;19.50;18.00;;;;;;;;5041237;28;61785;-75
2022/10/07 08:10:41;;;;;;;;;24.25;18.00;;;;;;;;5022673;28;63572;-76
2022/10/07 08:13:07;;;;;;;;;22.25;18.50;;;;;;;;5022638;28;61790;-76
2022/10/07 08:15:32;;;;;;;;;29.75;18.50;;;;;;;;5041318;28;61970;-76
2022/10/07 08:17:57;;;;;;;;;20.75;18.75;;;;;;;;5040720;28;61924;-76
2022/10/07 08:20:25;;;;;;;;;24.00;18.75;;;;;;;;5040226;28;61656;-76
2022/10/07 08:22:50;;;;;;;;;24.25;20.25;;;;;;;;5041002;28;62171;-76
2022/10/07 08:25:16;;;;;;;;;21.00;17.25;;;;;;;;5022709;28;61784;-76
2022/10/07 08:27:41;;;;;;;;;21.50;19.25;;;;;;;;5042514;28;61704;-76
2022/10/07 08:30:07;;;;;;;;;30.00;22.50;;;;;;;;5043841;28;61662;-76
2022/10/07 08:32:32;;;;;;;;;19.00;18.25;;;;;;;;5044022;28;61762;-76
2022/10/07 08:34:58;;;;;;;;;24.00;20.50;;;;;;;;5044392;28;61648;-76
2022/10/07 08:37:23;;;;;;;;;21.25;20.25;;;;;;;;5044097;28;62200;-76
2022/10/07 08:39:48;;;;;;;;;26.50;17.75;;;;;;;;5025466;28;64978;-76
2022/10/07 08:42:23;;;;;;;;;20.75;19.25;;;;;;;;5043965;28;61723;-76
2022/10/07 08:44:49;;;;;;;;;25.50;17.75;;;;;;;;5044240;28;61913;-76
2022/10/07 08:47:23;;;;;;;;;22.75;16.75;;;;;;;;5043564;28;62128;-76
2022/10/07 08:50:05;;;;;;;;;25.00;20.00;;;;;;;;5043145;28;61928;-76
2022/10/07 08:52:36;;;;;;;;;23.50;18.00;;;;;;;;5043934;28;61719;-76
2022/10/07 08:55:03;;;;;;;;;28.75;19.75;;;;;;;;5043902;28;61826;-76
2022/10/07 08:57:42;;;;;;;;;20.50;20.00;;;;;;;;5044042;28;61806;-76
2022/10/07 09:00:09;;;;;;;;;23.50;18.25;;;;;;;;5024905;28;65013;-76
2022/10/07 09:02:45;;;;;;;;;16.50;15.75;;;;;;;;5043343;28;61682;-76
2022/10/07 09:05:17;;;;;;;;;23.25;17.50;;;;;;;;5043555;28;61679;-76
2022/10/07 09:07:46;;;;;;;;;22.75;18.50;;;;;;;;5025849;28;62138;-76
2022/10/07 09:10:22;;;;;;;;;20.75;16.00;;;;;;;;5024738;28;64141;-76
2022/10/07 09:12:52;;;;;;;;;27.50;19.00;;;;;;;;5025418;28;61998;-76
2022/10/07 09:15:38;;;;;;;;;20.50;19.00;;;;;;;;5042781;28;61710;-76
2022/10/07 09:18:12;;;;;;;;;21.75;18.75;;;;;;;;5042572;28;61674;-76
2022/10/07 09:20:43;;;;;;;;;23.75;19.75;;;;;;;;5042660;28;61737;-76
2022/10/07 09:23:15;;;;;;;;;18.50;15.25;;;;;;;;5025307;28;61917;-76
2022/10/07 09:25:41;;;;;;;;;21.50;17.25;;;;;;;;5043722;28;61862;-76
2022/10/07 09:28:14;;;;;;;;;21.75;17.50;;;;;;;;5043619;28;62114;-76
2022/10/07 09:30:43;;;;;;;;;8.25;6.00;;;;;;;;5043016;28;61879;-76
2022/10/07 09:33:17;;;;;;;;;4.50;4.50;;;;;;;;5042726;28;62061;-76
2022/10/07 09:35:51;;;;;;;;;5.50;5.50;;;;;;;;5043314;28;61812;-76
2022/10/07 09:38:30;;;;;;;;;8.50;4.00;;;;;;;;5038661;28;61931;-76
2022/10/07 09:41:16;;;;;;;;;4.00;4.00;;;;;;;;5042594;28;62712;-76
2022/10/07 09:43:53;;;;;;;;;6.75;4.00;;;;;;;;5042982;28;61740;-76
2022/10/07 09:46:32;;;;;;;;;10.00;4.75;;;;;;;;5042738;28;61816;-76
2022/10/07 09:49:04;;;;;;;;;4.00;4.00;;;;;;;;5043059;28;61928;-76
2022/10/07 09:51:31;;;;;;;;;5.00;4.00;;;;;;;;5042059;28;61802;-76
2022/10/07 09:54:04;;;;;;;;;8.00;4.00;;;;;;;;5043081;28;61953;-76
2022/10/07 09:56:37;;;;;;;;;5.25;3.00;;;;;;;;5043006;28;61655;-76
2022/10/07 09:59:21;;;;;;;;;4.00;3.00;;;;;;;;5024387;28;61970;-75
2022/10/07 10:01:49;;;;;;;;;7.00;4.25;;;;;;;;5041864;28;61811;-76
2022/10/07 10:04:15;;;;;;;;;4.00;3.25;;;;;;;;5042586;28;61853;-76
2022/10/07 10:06:51;;;;;;;;;5.00;2.50;;;;;;;;5042412;28;61859;-76
2022/10/07 10:09:21;;;;;;;;;5.75;5.75;;;;;;;;5042818;28;62144;-76
2022/10/07 10:12:25;;;;;;;;;3.75;2.00;;;;;;;;5042225;28;61839;-76
2022/10/07 10:14:55;;;;;;;;;3.50;3.50;;;;;;;;4961087;28;61921;-76
2022/10/07 10:17:26;;;;;;;;;5.00;5.00;;;;;;;;4960027;28;61794;-77
2022/10/07 10:19:51;;;;;;;;;5.75;2.75;;;;;;;;4960194;28;62354;-77
2022/10/07 10:22:23;;;;;;;;;4.00;2.50;;;;;;;;4960461;28;64001;-77
2022/10/07 10:27:38;;;;;;;;;1.75;1.75;;;;;;;;4960750;28;62075;-75
2022/10/07 10:30:04;;;;;;;;;4.00;3.00;;;;;;;;4961120;28;61777;-76
2022/10/07 10:32:38;;;;;;;;;4.75;3.00;;;;;;;;4943730;28;64162;-76
2022/10/07 10:35:14;;;;;;;;;5.00;2.00;;;;;;;;4953410;28;62201;-76
2022/10/07 10:37:39;;;;;;;;;1.25;1.25;;;;;;;;4953709;28;61901;-76
2022/10/07 10:40:23;;;;;;;;;3.50;1.00;;;;;;;;4957441;28;61928;-76
2022/10/07 10:43:00;;;;;;;;;4.00;2.00;;;;;;;;4959878;28;61971;-77
2022/10/07 10:45:44;;;;;;;;;4.00;1.00;;;;;;;;4994482;28;62026;-76
2022/10/07 10:48:18;;;;;;;;;3.25;2.00;;;;;;;;5042060;28;61850;-76
2022/10/07 10:51:04;;;;;;;;;5.00;2.00;;;;;;;;5023310;28;62274;-76
2022/10/07 10:53:50;;;;;;;;;0.25;0.25;;;;;;;;5041727;28;61722;-76
2022/10/07 10:56:34;;;;;;;;;2.00;1.00;;;;;;;;5041958;28;61683;-76
2022/10/07 10:58:59;;;;;;;;;2.75;1.00;;;;;;;;5029310;28;61862;-76
2022/10/07 11:01:31;;;;;;;;;3.25;1.00;;;;;;;;5043901;28;61799;-76
2022/10/07 11:04:13;;;;;;;;;1.00;1.00;;;;;;;;5061303;28;62879;-76
2022/10/07 11:06:41;;;;;;;;;2.75;0.00;;;;;;;;5061795;28;61878;-76
2022/10/07 11:09:13;;;;;;;;;2.00;1.00;;;;;;;;5061949;28;61716;-76
2022/10/07 11:11:40;;;;;;;;;3.00;1.00;;;;;;;;5061834;28;61894;-76
2022/10/07 11:14:11;;;;;;;;;2.50;1.50;;;;;;;;5061309;28;61836;-77
2022/10/07 11:16:37;;;;;;;;;8.00;0.00;;;;;;;;5061315;28;62112;-78
2022/10/07 11:19:21;;;;;;;;;2.50;1.00;;;;;;;;5057584;28;61724;-76
2022/10/07 11:21:50;;;;;;;;;0.25;0.25;;;;;;;;5029397;28;61980;-76
2022/10/07 11:24:45;;;;;;;;;3.00;1.50;;;;;;;;5047939;28;62029;-76
2022/10/07 11:27:15;;;;;;;;;1.75;1.00;;;;;;;;5047543;28;62058;-76
2022/10/07 11:29:50;;;;;;;;;1.25;1.25;;;;;;;;5049830;28;61992;-76
2022/10/07 11:32:25;;;;;;;;;1.00;1.00;;;;;;;;5041872;28;62051;-76
2022/10/07 11:34:52;;;;;;;;;1.00;1.00;;;;;;;;5022288;28;63841;-76
2022/10/07 11:37:20;;;;;;;;;4.25;1.00;;;;;;;;5041216;28;61974;-76
2022/10/07 11:39:46;;;;;;;;;1.75;1.00;;;;;;;;5044245;28;61865;-76
2022/10/07 11:42:18;;;;;;;;;1.50;1.00;;;;;;;;5030192;28;61695;-76
2022/10/07 11:44:43;;;;;;;;;1.00;1.00;;;;;;;;5048545;28;62864;-75
2022/10/07 11:47:13;;;;;;;;;0.67;0.67;;;;;;;;5048571;28;61972;-75
2022/10/07 11:49:46;;;;;;;;;0.50;0.50;;;;;;;;5049288;28;61984;-76
2022/10/07 11:52:23;;;;;;;;;0.00;0.00;;;;;;;;5047857;28;61858;-76
2022/10/07 11:55:00;;;;;;;;;3.00;0.75;;;;;;;;5030482;28;62048;-76
2022/10/07 11:57:27;;;;;;;;;1.00;1.00;;;;;;;;5048820;28;61723;-76
2022/10/07 11:59:58;;;;;;;;;1.00;1.00;;;;;;;;5027176;28;61974;-76
2022/10/07 12:02:26;;;;;;;;;0.00;0.00;;;;;;;;5051369;28;61957;-76
2022/10/07 12:04:53;;;;;;;;;5.25;0.75;;;;;;;;5034805;28;63313;-76
2022/10/07 12:07:30;;;;;;;;;3.75;1.50;;;;;;;;5036342;28;61994;-77
2022/10/07 12:09:59;;;;;;;;;2.75;1.50;;;;;;;;5034044;28;62159;-76
2022/10/07 12:12:25;;;;;;;;;2.00;1.00;;;;;;;;5031145;28;61867;-76
2022/10/07 12:15:00;;;;;;;;;0.67;0.67;;;;;;;;5043800;28;61858;-77
2022/10/07 12:17:27;;;;;;;;;1.67;1.00;;;;;;;;5025259;28;61866;-76
2022/10/07 12:20:11;;;;;;;;;1.00;1.00;;;;;;;;5048283;28;61906;-77
2022/10/07 12:22:57;;;;;;;;;2.00;1.00;;;;;;;;5044634;28;62069;-77
2022/10/07 12:25:40;;;;;;;;;1.00;0.00;;;;;;;;5052592;28;61912;-77
2022/10/07 12:28:16;;;;;;;;;0.33;0.33;;;;;;;;5036892;28;61882;-76
2022/10/07 12:30:52;;;;;;;;;0.33;0.33;;;;;;;;5032809;28;61818;-76
2022/10/07 12:33:32;;;;;;;;;1.00;0.00;;;;;;;;5043025;28;61883;-76
2022/10/07 12:35:57;;;;;;;;;3.33;0.67;;;;;;;;5042672;28;61984;-76
2022/10/07 12:38:26;;;;;;;;;0.33;0.00;;;;;;;;5064019;28;61715;-76
2022/10/07 12:41:11;;;;;;;;;5.00;1.33;;;;;;;;5044486;28;61960;-75
2022/10/07 12:43:36;;;;;;;;;0.67;0.67;;;;;;;;5043627;28;61856;-75
2022/10/07 12:46:09;;;;;;;;;0.67;0.67;;;;;;;;5043656;28;62749;-75
2022/10/07 12:48:39;;;;;;;;;0.00;0.00;;;;;;;;5046285;28;61885;-75
2022/10/07 12:51:10;;;;;;;;;2.33;0.00;;;;;;;;5051436;28;62568;-76
2022/10/07 12:53:40;;;;;;;;;2.00;1.00;;;;;;;;5037139;28;61979;-73
2022/10/07 12:56:11;;;;;;;;;4.00;0.67;;;;;;;;5046171;28;61918;-76
2022/10/07 13:01:37;;;;;;;;;1.00;1.00;;;;;;;;5051342;28;62085;-75
2022/10/07 13:04:13;;;;;;;;;1.00;1.00;;;;;;;;5048529;28;61970;-76
2022/10/07 13:06:57;;;;;;;;;0.00;0.00;;;;;;;;5049642;28;61965;-75
2022/10/07 13:09:32;;;;;;;;;1.33;1.00;;;;;;;;5050617;28;61885;-76
2022/10/07 13:12:01;;;;;;;;;0.00;0.00;;;;;;;;5051973;28;61923;-76
2022/10/07 13:14:34;;;;;;;;;2.00;2.00;;;;;;;;5048725;28;62073;-74
2022/10/07 13:17:18;;;;;;;;;0.67;0.00;;;;;;;;5050715;28;62124;-74
2022/10/07 13:19:43;;;;;;;;;0.00;0.00;;;;;;;;5053107;28;62099;-76
2022/10/07 13:22:13;;;;;;;;;2.00;1.00;;;;;;;;5051434;28;61901;-75
2022/10/07 13:24:40;;;;;;;;;1.67;0.00;;;;;;;;5051312;28;61840;-76
2022/10/07 13:27:07;;;;;;;;;1.33;0.67;;;;;;;;5047942;28;62718;-76
2022/10/07 13:29:32;;;;;;;;;2.00;0.00;;;;;;;;5035351;28;61859;-76
2022/10/07 13:32:01;;;;;;;;;0.00;0.00;;;;;;;;5052652;28;61968;-75
2022/10/07 13:34:27;;;;;;;;;0.00;0.00;;;;;;;;5049248;28;61836;-75
2022/10/07 13:36:55;;;;;;;;;0.00;0.00;;;;;;;;5051303;28;62622;-75
2022/10/07 13:39:22;;;;;;;;;1.00;0.00;;;;;;;;5034925;28;62005;-76
2022/10/07 13:41:57;;;;;;;;;2.00;1.00;;;;;;;;5051796;28;62178;-75
2022/10/07 13:44:28;;;;;;;;;1.00;0.00;;;;;;;;5050491;28;61809;-75
2022/10/07 13:46:53;;;;;;;;;0.00;0.00;;;;;;;;5032154;28;63680;-74
2022/10/07 13:49:23;;;;;;;;;0.00;0.00;;;;;;;;5052450;28;61743;-75
2022/10/07 13:51:49;;;;;;;;;0.67;0.67;;;;;;;;5033636;28;61799;-75
2022/10/07 13:54:17;;;;;;;;;0.00;0.00;;;;;;;;5050407;28;61979;-75
2022/10/07 13:56:43;;;;;;;;;1.33;0.00;;;;;;;;5033285;28;63758;-75
2022/10/07 13:59:14;;;;;;;;;3.33;0.33;;;;;;;;5050704;28;61959;-75
2022/10/07 14:01:40;;;;;;;;;2.67;0.00;;;;;;;;5033303;28;63044;-76
2022/10/07 14:04:24;;;;;;;;;0.00;0.00;;;;;;;;5053336;28;61816;-75
2022/10/07 14:06:52;;;;;;;;;0.67;0.67;;;;;;;;5049466;28;61771;-75
2022/10/07 14:09:19;;;;;;;;;0.00;0.00;;;;;;;;5033455;28;61885;-75
2022/10/07 14:11:46;;;;;;;;;1.33;0.00;;;;;;;;5040508;28;62446;-77
2022/10/07 14:14:19;;;;;;;;;2.00;0.67;;;;;;;;5042824;28;62021;-78
2022/10/07 14:16:47;;;;;;;;;1.00;1.00;;;;;;;;5023457;28;62769;-78
2022/10/07 14:19:19;;;;;;;;;0.67;0.00;;;;;;;;5042141;28;61834;-75
2022/10/07 14:21:45;;;;;;;;;6.00;1.00;;;;;;;;5032831;28;61891;-77
2022/10/07 14:24:18;;;;;;;;;1.33;0.33;;;;;;;;5034329;28;62020;-77
2022/10/07 14:26:44;;;;;;;;;1.33;0.33;;;;;;;;5049436;28;61893;-77
2022/10/07 14:29:21;;;;;;;;;0.00;0.00;;;;;;;;5052312;28;62248;-76
2022/10/07 14:37:27;;;;;;;;;0.00;0.00;;;;;;;;5047735;28;61958;-77
2022/10/07 14:39:52;;;;;;;;;0.00;0.00;;;;;;;;5044960;28;61878;-77
2022/10/07 14:42:17;;;;;;;;;0.00;0.00;;;;;;;;5055078;28;62138;-76
2022/10/07 14:44:43;;;;;;;;;0.00;0.00;;;;;;;;5053297;28;62299;-76
2022/10/07 14:47:14;;;;;;;;;0.67;0.00;;;;;;;;5040116;28;61853;-80
2022/10/07 14:49:42;;;;;;;;;0.33;0.00;;;;;;;;5041147;28;61884;-76
2022/10/07 14:52:20;;;;;;;;;0.67;0.00;;;;;;;;5041365;28;61810;-76
2022/10/07 14:54:53;;;;;;;;;0.00;0.00;;;;;;;;5041627;28;62080;-76
2022/10/07 14:57:19;;;;;;;;;0.00;0.00;;;;;;;;5041110;28;61838;-76
2022/10/07 14:59:48;;;;;;;;;0.00;0.00;;;;;;;;5041797;28;61882;-76
2022/10/07 15:02:14;;;;;;;;;0.00;0.00;;;;;;;;5042199;28;62155;-76